Time;durP1;ratioP1;P1;durP2;ratioP2;P2;SDS_P1;SDS_P2;PMS_P1;PMS_P2;Temp;Humidity;BMP_temperature;BMP_pressure;BME280_temperature;BME280_humidity;BME280_pressure;Samples;Min_cycle;Max_cycle;Signal;HPM_P1;HPM_P2
2023/03/09 07:22:20;;;;;;;;;4.00;4.00;;;;;11.63;100.00;99816.22;6057680;23;47655;31
2023/03/09 07:24:46;;;;;;;;;6.25;2.50;;;;;11.03;100.00;99748.66;4892060;28;51702;-72
2023/03/09 07:27:11;;;;;;;;;3.25;3.25;;;;;11.70;100.00;99819.75;4895426;28;50887;-71
2023/03/09 07:29:38;;;;;;;;;3.50;1.25;;;;;10.19;100.00;99602.25;4900468;28;49757;-74
2023/03/09 07:32:04;;;;;;;;;2.50;2.50;;;;;10.96;100.00;99684.75;4906982;28;49695;-73
2023/03/09 07:34:32;;;;;;;;;2.75;2.50;;;;;10.96;100.00;99687.38;4913687;28;51045;-73
2023/03/09 07:36:57;;;;;;;;;7.00;3.00;;;;;10.46;100.00;99635.63;4915044;28;49772;-74
2023/03/09 07:39:23;;;;;;;;;4.00;3.75;;;;;11.01;100.00;99692.66;4913493;28;49680;-74
2023/03/09 07:41:48;;;;;;;;;4.00;3.00;;;;;11.85;100.00;99835.56;4914059;28;49632;-73
2023/03/09 07:44:13;;;;;;;;;8.00;3.00;;;;;10.44;100.00;99626.00;4911553;28;50827;-76
2023/03/09 07:46:39;;;;;;;;;7.75;5.00;;;;;10.92;100.00;99640.97;4911702;28;49936;-75
2023/03/09 07:49:04;;;;;;;;;4.00;2.25;;;;;11.16;100.00;99685.66;4909587;28;50143;-74
2023/03/09 07:51:29;;;;;;;;;2.25;2.25;;;;;11.45;100.00;99711.06;4912198;28;49836;-75
2023/03/09 07:53:55;;;;;;;;;1.25;1.25;;;;;12.20;100.00;99839.97;4912617;28;50001;-73
2023/03/09 07:56:20;;;;;;;;;5.75;4.25;;;;;10.96;100.00;99674.25;4907953;28;51317;-73
2023/03/09 07:58:46;;;;;;;;;3.00;1.00;;;;;12.01;100.00;99794.38;4911951;28;49762;-75
2023/03/09 08:01:15;;;;;;;;;6.00;4.25;;;;;11.75;100.00;99758.38;4912582;28;49774;-74
2023/03/09 08:03:40;;;;;;;;;4.50;4.50;;;;;12.36;100.00;99844.34;4912429;28;49998;-78
2023/03/09 08:06:06;;;;;;;;;2.25;2.25;;;;;12.13;100.00;99770.66;4907482;28;50159;-77
2023/03/09 08:08:33;;;;;;;;;2.00;1.00;;;;;12.30;100.00;99786.44;4911791;28;49833;-77
2023/03/09 08:10:58;;;;;;;;;3.75;2.00;;;;;11.36;100.00;99595.44;4913190;28;49918;-78
2023/03/09 08:13:24;;;;;;;;;6.25;5.00;;;;;12.82;100.00;99863.53;4908626;28;50570;-81
2023/03/09 08:15:51;;;;;;;;;3.50;3.00;;;;;12.47;100.00;99773.25;4912090;28;49986;-74
2023/03/09 08:18:17;;;;;;;;;9.00;7.00;;;;;11.62;100.00;99666.38;4911369;28;50186;-73
2023/03/09 08:20:42;;;;;;;;;5.75;3.50;;;;;12.79;100.00;99825.81;4911387;28;49801;-75
2023/03/09 08:23:08;;;;;;;;;2.00;2.00;;;;;11.82;100.00;99648.88;4918513;28;49678;-71
2023/03/09 08:25:33;;;;;;;;;3.50;2.75;;;;;12.25;100.00;99748.72;4931093;28;49718;-71
2023/03/09 08:27:59;;;;;;;;;11.50;5.75;;;;;12.41;100.00;99733.78;4930427;28;49875;-73
2023/03/09 08:30:25;;;;;;;;;9.25;4.25;;;;;12.80;100.00;99795.97;4930053;28;49839;-72
2023/03/09 08:32:51;;;;;;;;;3.25;2.75;;;;;13.14;100.00;99831.84;4930476;28;50828;-71
2023/03/09 08:35:18;;;;;;;;;6.00;3.00;;;;;12.92;100.00;99785.38;4931365;28;49805;-73
2023/03/09 08:37:44;;;;;;;;;7.75;4.00;;;;;13.17;100.00;99833.56;4930392;28;49661;-72
2023/03/09 08:40:10;;;;;;;;;1.75;1.75;;;;;12.66;100.00;99742.47;4931672;28;50170;-77
2023/03/09 08:42:36;;;;;;;;;6.00;4.75;;;;;13.05;100.00;99781.81;4930020;28;49786;-77
2023/03/09 08:45:03;;;;;;;;;8.50;5.25;;;;;12.99;100.00;99766.03;4929833;28;49914;-77
2023/03/09 08:47:29;;;;;;;;;5.25;3.75;;;;;13.06;100.00;99783.56;4929809;28;50064;-76
2023/03/09 08:49:54;;;;;;;;;8.25;5.50;;;;;13.56;100.00;99835.16;4931475;28;49991;-69
2023/03/09 08:52:20;;;;;;;;;4.75;3.75;;;;;13.59;100.00;99824.56;4930365;28;49984;-71
2023/03/09 08:54:46;;;;;;;;;4.00;2.50;;;;;13.26;100.00;99772.94;4931426;28;49853;-71
2023/03/09 08:57:11;;;;;;;;;9.75;5.75;;;;;13.50;100.00;99806.19;4932010;28;49877;-72
2023/03/09 08:59:37;;;;;;;;;5.25;5.00;;;;;13.75;100.00;99828.00;4931799;28;49756;-73
2023/03/09 09:02:03;;;;;;;;;5.25;3.50;;;;;13.94;100.00;99841.94;4931406;28;49887;-72
2023/03/09 09:04:29;;;;;;;;;3.00;3.00;;;;;14.08;100.00;99863.78;4931699;28;49828;-72
2023/03/09 09:06:54;;;;;;;;;3.25;2.50;;;;;13.82;100.00;99802.47;4931791;28;49834;-74
2023/03/09 09:09:20;;;;;;;;;5.00;3.00;;;;;13.80;100.00;99798.94;4919313;28;49641;-69
2023/03/09 09:11:46;;;;;;;;;2.00;2.00;;;;;13.03;100.00;99694.00;4932394;28;49798;-74
2023/03/09 09:14:12;;;;;;;;;4.50;3.25;;;;;14.21;100.00;99864.59;4931614;28;49929;-69
2023/03/09 09:16:37;;;;;;;;;5.00;3.00;;;;;14.14;100.00;99832.09;4930210;28;50279;-75
2023/03/09 09:19:02;;;;;;;;;3.75;3.25;;;;;14.03;100.00;99797.00;4931860;28;50060;-69
2023/03/09 09:21:28;;;;;;;;;8.50;4.50;;;;;13.75;100.00;99748.88;4926727;28;49747;-70
2023/03/09 09:23:54;;;;;;;;;4.50;4.00;;;;;14.59;100.00;99864.28;4931300;28;49520;-77
2023/03/09 09:26:20;;;;;;;;;5.25;4.75;;;;;14.62;100.00;99866.88;4931719;28;49900;-68
2023/03/09 09:28:46;;;;;;;;;10.25;5.00;;;;;14.22;100.00;99771.31;4930742;28;49670;-70
2023/03/09 09:31:16;;;;;;;;;6.25;4.00;;;;;14.65;100.00;99843.06;4931127;28;50488;-68
2023/03/09 09:33:42;;;;;;;;;4.25;3.50;;;;;14.68;100.00;99807.84;4931171;28;49743;-74
2023/03/09 09:36:12;;;;;;;;;3.00;2.00;;;;;15.00;100.00;99841.81;4931315;28;50094;-68
2023/03/09 09:38:38;;;;;;;;;4.50;4.00;;;;;14.96;100.00;99829.50;4931466;28;49867;-73
2023/03/09 09:41:30;;;;;;;;;5.00;5.00;;;;;14.39;100.00;99710.44;4930954;28;51320;-73
2023/03/09 09:44:00;;;;;;;;;4.75;3.75;;;;;15.15;100.00;99838.97;4934554;28;49662;-72
2023/03/09 09:46:29;;;;;;;;;3.75;3.50;;;;;15.20;100.00;99838.94;4922936;28;49715;-73
2023/03/09 09:48:55;;;;;;;;;4.25;3.25;;;;;13.99;100.00;99616.75;4949428;28;50291;-73
2023/03/09 09:51:21;;;;;;;;;6.50;3.00;;;;;15.36;100.00;99835.22;4933995;28;49865;-74
2023/03/09 09:54:01;;;;;;;;;4.50;4.25;;;;;15.50;100.00;99849.09;4934412;28;49768;-73
2023/03/09 09:56:53;;;;;;;;;6.75;5.75;;;;;14.77;100.00;99696.78;4934468;28;49780;-74
2023/03/09 09:59:40;;;;;;;;;6.00;5.00;;;;;15.51;100.00;99821.75;4933693;28;50036;-73
2023/03/09 10:02:08;;;;;;;;;11.25;6.75;;;;;15.75;100.00;99820.56;4934181;28;49842;-73
2023/03/09 10:04:50;;;;;;;;;4.25;3.25;;;;;15.80;100.00;99824.00;4934064;28;49857;-73
2023/03/09 10:07:19;;;;;;;;;3.25;1.75;;;;;14.50;100.00;99617.00;4933868;28;49857;-73
2023/03/09 10:09:50;;;;;;;;;10.00;6.25;;;;;15.07;100.00;99714.00;4934307;28;49965;-74
2023/03/09 10:12:16;;;;;;;;;2.75;2.75;;;;;15.02;100.00;99714.03;4933931;28;51028;-74
2023/03/09 10:14:54;;;;;;;;;8.00;4.00;;;;;15.26;100.00;99775.41;4933888;28;49827;-74
2023/03/09 10:17:34;;;;;;;;;7.25;4.50;;;;;15.43;100.00;99805.09;4934135;28;49819;-73
2023/03/09 10:20:14;;;;;;;;;4.25;4.25;;;;;14.65;100.00;99665.22;4932796;28;49884;-73
2023/03/09 10:22:44;;;;;;;;;4.00;4.00;;;;;14.82;100.00;99685.25;4933223;28;50999;-73
2023/03/09 10:25:16;;;;;;;;;4.00;2.00;;;;;14.09;100.00;99571.75;4933691;28;49876;-73
2023/03/09 10:27:55;;;;;;;;;5.50;5.00;;;;;15.85;100.00;99819.53;4933700;28;50910;-73
2023/03/09 10:30:56;;;;;;;;;9.50;5.00;;;;;15.37;100.00;99731.16;4934047;28;49663;-73
2023/03/09 10:33:31;;;;;;;;;3.00;3.00;;;;;15.84;100.00;99766.63;4926592;28;51378;-74
2023/03/09 10:36:07;;;;;;;;;4.00;4.00;;;;;15.87;100.00;99732.16;4933976;28;49928;-75
2023/03/09 10:38:33;;;;;;;;;5.25;4.00;;;;;16.13;100.00;99777.59;4933706;28;49776;-73
2023/03/09 10:40:58;;;;;;;;;4.50;2.75;;;;;16.35;100.00;99806.34;4933881;28;49782;-74
2023/03/09 10:43:26;;;;;;;;;4.75;4.00;;;;;16.39;100.00;99806.25;4933292;28;50814;-73
2023/03/09 10:45:53;;;;;;;;;3.00;3.00;;;;;15.73;100.00;99687.44;4933672;28;49994;-73
2023/03/09 10:48:24;;;;;;;;;10.75;6.00;;;;;16.35;100.00;99788.66;4933500;28;49798;-73
2023/03/09 10:50:59;;;;;;;;;4.00;3.00;;;;;14.65;100.00;99538.44;4933790;28;49875;-73
2023/03/09 10:53:27;;;;;;;;;4.50;4.50;;;;;15.97;100.00;99771.69;4932940;28;50396;-74
2023/03/09 10:55:58;;;;;;;;;3.75;2.25;;;;;15.03;100.00;99652.34;4933238;28;49830;-73
2023/03/09 10:58:23;;;;;;;;;5.00;3.25;;;;;15.44;100.00;99685.19;4933205;28;49784;-73
2023/03/09 11:01:18;;;;;;;;;5.25;2.75;;;;;15.63;100.00;99710.50;4933367;28;50024;-73
2023/03/09 11:03:44;;;;;;;;;9.00;3.00;;;;;16.44;100.00;99798.22;4933175;28;49899;-73
2023/03/09 11:06:12;;;;;;;;;6.00;2.75;;;;;16.57;100.00;99792.66;4933221;28;49789;-73
2023/03/09 11:08:38;;;;;;;;;15.50;7.00;;;;;14.89;100.00;99523.09;4931496;28;49868;-74
2023/03/09 11:11:16;;;;;;;;;4.75;3.50;;;;;15.52;100.00;99654.22;4933558;28;49889;-74
2023/03/09 11:13:45;;;;;;;;;5.00;3.75;;;;;15.50;100.00;99589.91;4932869;28;51054;-74
2023/03/09 11:16:21;;;;;;;;;4.50;3.75;;;;;16.66;100.00;99785.44;4932912;28;49803;-74
2023/03/09 11:18:48;;;;;;;;;2.25;0.00;;;;;16.01;100.00;99709.81;4933020;28;49898;-74
2023/03/09 11:21:22;;;;;;;;;4.75;3.75;;;;;16.59;100.00;99795.28;4933011;28;49922;-74
2023/03/09 11:23:52;;;;;;;;;5.25;4.00;;;;;16.44;100.00;99772.59;4932621;28;50066;-73
2023/03/09 11:26:31;;;;;;;;;5.00;3.00;;;;;16.57;100.00;99819.16;4932968;28;50121;-73
2023/03/09 11:29:15;;;;;;;;;3.00;3.00;;;;;16.65;100.00;99796.94;4932484;28;49847;-73
2023/03/09 11:31:42;;;;;;;;;4.25;2.50;;;;;16.73;100.00;99801.22;4933176;28;49803;-74
2023/03/09 11:34:35;;;;;;;;;7.50;3.00;;;;;15.21;100.00;99528.72;4920047;28;49887;-73
2023/03/09 11:37:06;;;;;;;;;8.25;6.00;;;;;16.78;100.00;99793.16;4920534;28;49763;-74
2023/03/09 11:39:42;;;;;;;;;4.75;4.50;;;;;16.79;100.00;99787.88;4932504;28;49984;-73
2023/03/09 11:42:14;;;;;;;;;5.75;3.00;;;;;16.78;100.00;99801.13;4932879;28;49992;-73
2023/03/09 11:44:43;;;;;;;;;4.25;3.50;;;;;16.80;100.00;99788.75;4932215;28;51067;-73
2023/03/09 11:47:28;;;;;;;;;2.75;2.00;;;;;16.62;100.00;99726.34;4931190;28;49784;-73
2023/03/09 11:50:03;;;;;;;;;3.75;2.00;;;;;16.21;100.00;99643.28;4932605;28;49849;-73
2023/03/09 11:52:36;;;;;;;;;6.00;2.00;;;;;15.83;100.00;99567.28;4932550;28;49959;-74
2023/03/09 11:55:11;;;;;;;;;6.00;3.50;;;;;16.60;100.00;99728.16;4932266;28;50856;-74
2023/03/09 11:57:39;;;;;;;;;2.50;2.50;;;;;16.95;100.00;99782.22;4932422;28;49806;-73
2023/03/09 12:00:14;;;;;;;;;5.25;2.25;;;;;16.96;100.00;99718.56;4932712;28;49929;-74
2023/03/09 12:03:01;;;;;;;;;7.00;3.75;;;;;17.33;100.00;99752.22;4932536;28;49730;-74
2023/03/09 12:05:35;;;;;;;;;3.25;3.25;;;;;17.41;100.00;99780.34;4919587;28;50728;-74
2023/03/09 12:08:16;;;;;;;;;7.25;5.00;;;;;17.43;100.00;99738.72;4932090;28;50086;-74
2023/03/09 12:10:41;;;;;;;;;5.25;3.00;;;;;17.64;100.00;99763.00;4932309;28;49563;-74
2023/03/09 12:13:22;;;;;;;;;6.75;4.50;;;;;17.60;100.00;99732.16;4932347;28;49938;-74
2023/03/09 12:15:50;;;;;;;;;4.75;4.75;;;;;16.97;100.00;99656.69;4932146;28;50938;-74
2023/03/09 12:18:23;;;;;;;;;5.25;3.75;;;;;17.73;100.00;99738.91;4932230;28;49787;-74
2023/03/09 12:20:52;;;;;;;;;4.50;3.00;;;;;16.64;100.00;99543.47;4932238;28;50127;-74
2023/03/09 12:23:35;;;;;;;;;4.00;3.25;;;;;17.92;100.00;99736.69;4932096;28;50081;-74
2023/03/09 12:26:03;;;;;;;;;2.50;1.25;;;;;17.08;100.00;99638.78;4914561;28;52501;-75
2023/03/09 12:28:29;;;;;;;;;4.25;3.00;;;;;17.77;100.00;99724.69;4931951;28;50315;-75
2023/03/09 12:30:57;;;;;;;;;4.50;3.25;;;;;17.80;100.00;99742.31;4932236;28;49729;-74
2023/03/09 12:33:40;;;;;;;;;3.75;2.00;;;;;17.75;100.00;99718.50;4918672;28;49565;-74
2023/03/09 12:36:22;;;;;;;;;4.00;4.00;;;;;17.77;100.00;99722.03;4931457;28;49741;-75
2023/03/09 12:39:23;;;;;;;;;7.50;5.00;;;;;17.65;100.00;99674.50;4931759;28;49838;-75
2023/03/09 12:42:07;;;;;;;;;4.25;1.00;;;;;17.90;100.00;99710.19;4931890;28;50023;-74
2023/03/09 12:44:44;;;;;;;;;5.50;4.25;;;;;17.90;100.00;99696.91;4931832;28;49804;-74
2023/03/09 12:47:35;;;;;;;;;4.00;3.25;;;;;17.81;100.00;99698.91;4931602;28;50467;-77
2023/03/09 12:50:03;;;;;;;;;3.50;2.75;;;;;16.88;100.00;99548.22;4931619;28;49818;-75
2023/03/09 12:52:54;;;;;;;;;3.50;3.50;;;;;17.20;100.00;99608.44;4931496;28;49788;-74
2023/03/09 12:55:40;;;;;;;;;4.50;4.50;;;;;17.48;100.00;99607.75;4932056;28;49874;-75
2023/03/09 12:58:20;;;;;;;;;6.00;4.25;;;;;17.87;100.00;99688.16;4931634;28;51092;-74
2023/03/09 13:01:08;;;;;;;;;;;;;;;;;;;;;
2023/03/09 13:03:39;;;;;;;;;4.50;1.00;;;;;16.95;100.00;99563.06;4930116;28;72781;-78
2023/03/09 13:06:19;;;;;;;;;5.00;4.00;;;;;16.55;100.00;99510.97;4936062;28;49389;-73
2023/03/09 13:08:55;;;;;;;;;5.50;4.50;;;;;16.83;100.00;99574.84;4928674;28;50206;-75
2023/03/09 13:11:24;;;;;;;;;3.75;3.25;;;;;17.09;100.00;99613.13;4927708;28;49856;-84
2023/03/09 13:14:22;;;;;;;;;;;;;;;;;;;;;
2023/03/09 13:16:50;;;;;;;;;2.00;2.00;;;;;16.79;100.00;99549.34;4932259;28;67291;-80
2023/03/09 13:19:18;;;;;;;;;6.50;3.00;;;;;17.43;100.00;99660.91;4933096;28;51398;-83
2023/03/09 13:21:48;;;;;;;;;4.00;1.25;;;;;17.41;100.00;99653.00;4913515;28;49827;-75
2023/03/09 13:24:24;;;;;;;;;3.00;1.50;;;;;16.28;100.00;99464.81;4931647;28;50176;-76
2023/03/09 13:26:55;;;;;;;;;4.00;2.00;;;;;17.21;100.00;99619.91;4925724;28;49997;-80
2023/03/09 13:29:24;;;;;;;;;6.75;4.00;;;;;15.60;100.00;99341.94;4912587;28;50074;-86
2023/03/09 13:31:58;;;;;;;;;5.25;4.00;;;;;17.27;100.00;99566.69;4899357;28;49988;-82
2023/03/09 13:34:31;;;;;;;;;5.25;5.00;;;;;17.43;100.00;99632.59;4919423;28;49853;-79
2023/03/09 13:37:22;;;;;;;;;5.25;2.50;;;;;17.26;100.00;99607.38;4923246;28;49751;-75
2023/03/09 13:40:02;;;;;;;;;2.50;1.50;;;;;16.53;100.00;99512.81;4902077;28;51146;-76
2023/03/09 13:42:31;;;;;;;;;5.00;3.25;;;;;16.25;100.00;99482.56;4904460;28;49690;-75
2023/03/09 13:44:58;;;;;;;;;3.75;3.50;;;;;16.98;100.00;99605.41;4921838;28;49788;-75
2023/03/09 13:47:26;;;;;;;;;1.25;1.25;;;;;15.86;100.00;99413.72;4920444;28;49976;-75
2023/03/09 13:49:54;;;;;;;;;4.75;3.00;;;;;15.85;100.00;99434.94;4933734;28;50821;-74
2023/03/09 13:52:20;;;;;;;;;1.25;1.25;;;;;16.63;100.00;99560.28;4934120;28;49841;-77
2023/03/09 13:54:53;;;;;;;;;2.50;2.50;;;;;16.93;100.00;99593.19;4934147;28;49990;-74
2023/03/09 13:57:24;;;;;;;;;2.00;2.00;;;;;15.10;100.00;99315.69;4934463;28;49934;-76
2023/03/09 13:59:55;;;;;;;;;3.25;2.25;;;;;16.98;100.00;99597.44;4922663;28;50798;-75
2023/03/09 14:02:23;;;;;;;;;3.00;2.50;;;;;17.10;100.00;99591.00;4934168;28;49621;-74
2023/03/09 14:04:58;;;;;;;;;5.75;4.50;;;;;17.21;100.00;99590.75;4932893;28;49806;-74
2023/03/09 14:07:27;;;;;;;;;3.00;2.00;;;;;17.17;100.00;99596.09;4933815;28;49981;-75
2023/03/09 14:10:25;;;;;;;;;5.75;3.25;;;;;16.93;100.00;99546.34;4933729;28;49726;-75
2023/03/09 14:12:54;;;;;;;;;1.50;1.50;;;;;16.41;100.00;99440.72;4926775;28;49961;-75
2023/03/09 14:15:21;;;;;;;;;3.75;1.50;;;;;16.62;100.00;99502.91;4933874;28;49655;-75
2023/03/09 14:17:48;;;;;;;;;3.00;2.25;;;;;16.30;100.00;99448.88;4934219;28;49762;-74
2023/03/09 14:20:20;;;;;;;;;2.75;1.25;;;;;15.96;100.00;99419.69;4933818;28;50946;-74
2023/03/09 14:22:46;;;;;;;;;5.00;4.00;;;;;16.59;100.00;99503.81;4933560;28;49611;-75
2023/03/09 14:25:30;;;;;;;;;3.00;2.00;;;;;16.92;100.00;99565.81;4933888;28;49782;-75
2023/03/09 14:27:59;;;;;;;;;3.00;3.00;;;;;16.40;100.00;99474.25;4932752;28;49967;-76
2023/03/09 14:30:27;;;;;;;;;3.00;2.00;;;;;16.88;100.00;99559.69;4933489;28;49831;-75
2023/03/09 14:33:03;;;;;;;;;1.50;1.00;;;;;16.62;100.00;99526.75;4933638;28;49714;-74
2023/03/09 14:35:35;;;;;;;;;1.50;1.50;;;;;16.78;100.00;99557.28;4933903;28;50056;-74
2023/03/09 14:38:01;;;;;;;;;2.50;2.50;;;;;15.61;100.00;99391.34;4933697;28;49891;-75
2023/03/09 14:40:30;;;;;;;;;2.75;1.00;;;;;16.79;100.00;99553.72;4933626;28;49992;-74
2023/03/09 14:43:21;;;;;;;;;4.00;3.00;;;;;16.69;100.00;99531.00;4933041;28;49735;-74
2023/03/09 14:45:47;;;;;;;;;2.50;1.25;;;;;16.53;100.00;99512.81;4916197;28;50118;-75
2023/03/09 14:48:13;;;;;;;;;1.75;1.75;;;;;15.71;100.00;99393.75;4933569;28;49973;-76
2023/03/09 14:50:38;;;;;;;;;2.00;1.00;;;;;16.09;100.00;99447.59;4926143;28;50091;-73
2023/03/09 14:53:04;;;;;;;;;1.00;1.00;;;;;16.53;100.00;99514.59;4909009;28;49673;-75
2023/03/09 14:55:30;;;;;;;;;4.50;3.75;;;;;15.64;100.00;99415.09;4933530;28;49956;-75
2023/03/09 14:57:55;;;;;;;;;3.00;2.00;;;;;15.93;100.00;99447.09;4933418;28;49679;-79
2023/03/09 15:00:24;;;;;;;;;4.50;3.00;;;;;15.67;100.00;99386.78;4932994;28;50811;-75
2023/03/09 15:02:50;;;;;;;;;3.75;2.00;;;;;15.34;100.00;99322.22;4933257;28;49666;-75
2023/03/09 15:05:22;;;;;;;;;2.00;2.00;;;;;16.17;100.00;99473.91;4933141;28;49805;-77
2023/03/09 15:07:48;;;;;;;;;4.75;2.00;;;;;15.84;100.00;99397.00;4932895;28;49577;-76
2023/03/09 15:10:15;;;;;;;;;4.50;2.50;;;;;16.51;100.00;99484.63;4932990;28;49935;-79
2023/03/09 15:12:42;;;;;;;;;3.00;2.00;;;;;15.20;100.00;99305.78;4933129;28;49809;-77
2023/03/09 15:15:27;;;;;;;;;2.75;2.00;;;;;16.44;100.00;99483.00;4933152;28;49673;-78
2023/03/09 15:17:55;;;;;;;;;3.00;2.75;;;;;15.41;100.00;99337.06;4932112;28;49904;-77
2023/03/09 15:20:22;;;;;;;;;3.75;2.00;;;;;15.07;100.00;99227.69;4931515;28;50916;-75
2023/03/09 15:22:48;;;;;;;;;2.00;1.00;;;;;15.50;100.00;99313.97;4931430;28;50072;-78
2023/03/09 15:25:17;;;;;;;;;1.00;1.00;;;;;15.60;100.00;99315.50;4932028;28;49838;-79
2023/03/09 15:27:43;;;;;;;;;4.00;3.00;;;;;15.48;100.00;99306.06;4931817;28;49843;-76
2023/03/09 15:30:14;;;;;;;;;2.75;1.75;;;;;15.10;100.00;99256.66;4931755;28;50581;-76
2023/03/09 15:32:40;;;;;;;;;1.25;1.25;;;;;16.00;100.00;99389.56;4931800;28;49958;-75
2023/03/09 15:35:07;;;;;;;;;1.50;1.00;;;;;15.51;100.00;99313.06;4931950;28;49862;-76
2023/03/09 15:37:33;;;;;;;;;2.50;1.50;;;;;16.52;100.00;99481.06;4926810;28;49762;-76
2023/03/09 15:39:58;;;;;;;;;1.75;1.75;;;;;15.50;100.00;99261.94;4939446;28;49725;-77
2023/03/09 15:42:24;;;;;;;;;3.00;2.00;;;;;16.81;100.00;99453.88;4935815;28;50177;-81
2023/03/09 15:44:49;;;;;;;;;2.25;1.50;;;;;15.96;100.00;99316.47;4943354;28;49858;-77
2023/03/09 15:47:15;;;;;;;;;1.00;1.00;;;;;16.86;100.00;99458.13;4943879;28;49677;-83
2023/03/09 15:49:42;;;;;;;;;1.50;1.50;;;;;16.78;100.00;99427.44;4934208;28;50837;-78
2023/03/09 15:52:08;;;;;;;;;3.00;2.00;;;;;16.74;100.00;99431.09;4915963;28;49994;-77
2023/03/09 15:54:33;;;;;;;;;2.25;1.25;;;;;16.82;100.00;99424.69;4914874;28;49736;-75
2023/03/09 15:56:59;;;;;;;;;1.00;1.00;;;;;16.91;100.00;99423.56;4915699;28;50044;-75
2023/03/09 15:59:24;;;;;;;;;2.75;1.00;;;;;16.99;100.00;99423.38;4913663;28;50483;-77
2023/03/09 16:01:51;;;;;;;;;2.50;2.00;;;;;16.72;100.00;99356.94;4914360;28;50093;-76
2023/03/09 16:04:19;;;;;;;;;1.25;1.00;;;;;15.91;100.00;99274.19;4915895;28;49895;-80
2023/03/09 16:06:45;;;;;;;;;1.75;1.75;;;;;15.66;100.00;99186.66;4922550;28;49660;-76
2023/03/09 16:09:12;;;;;;;;;1.75;1.25;;;;;16.45;100.00;99347.00;4923924;28;50937;-77
2023/03/09 16:11:37;;;;;;;;;1.25;1.00;;;;;16.56;100.00;99385.56;4920935;28;49858;-79
2023/03/09 16:14:04;;;;;;;;;2.50;1.00;;;;;15.46;100.00;99188.88;4934287;28;49911;-79
2023/03/09 16:16:29;;;;;;;;;1.50;1.50;;;;;16.13;100.00;99327.50;4933992;28;50443;-75
2023/03/09 16:18:55;;;;;;;;;1.00;1.00;;;;;14.84;100.00;99154.16;4933159;28;49968;-79
2023/03/09 16:21:20;;;;;;;;;3.00;3.00;;;;;16.09;100.00;99346.13;4931855;28;49907;-81
2023/03/09 16:23:45;;;;;;;;;1.00;1.00;;;;;15.46;100.00;99252.34;4932161;28;50028;-75
2023/03/09 16:26:17;;;;;;;;;1.00;1.00;;;;;15.94;100.00;99319.16;4919979;28;49742;-80
2023/03/09 16:28:43;;;;;;;;;0.00;0.00;;;;;15.19;100.00;99185.09;4920150;28;50819;-80
2023/03/09 16:31:21;;;;;;;;;1.00;1.00;;;;;15.14;100.00;99179.03;4932046;28;49711;-79
2023/03/09 16:33:48;;;;;;;;;1.00;1.00;;;;;14.93;100.00;99167.19;4932120;28;49913;-79
2023/03/09 16:36:14;;;;;;;;;3.00;1.00;;;;;16.10;100.00;99364.63;4931990;28;49962;-75
2023/03/09 16:38:40;;;;;;;;;4.25;2.50;;;;;16.02;100.00;99386.00;4931795;28;49832;-82
2023/03/09 16:41:07;;;;;;;;;2.00;2.00;;;;;14.59;100.00;99120.38;4931858;28;49656;-77
2023/03/09 16:43:32;;;;;;;;;2.00;1.00;;;;;15.39;100.00;99242.81;4932028;28;50151;-77
2023/03/09 16:45:58;;;;;;;;;2.75;2.00;;;;;15.05;100.00;99242.66;4931675;28;49887;-80
2023/03/09 16:48:25;;;;;;;;;1.25;1.00;;;;;15.38;100.00;99278.97;4931633;28;49707;-79
2023/03/09 16:50:57;;;;;;;;;3.25;3.25;;;;;14.94;100.00;99212.97;4932343;28;49674;-78
2023/03/09 16:53:24;;;;;;;;;1.00;1.00;;;;;14.78;100.00;99180.75;4936296;28;49973;-78
2023/03/09 16:56:02;;;;;;;;;3.00;2.00;;;;;15.46;100.00;99289.38;4936882;28;50016;-80
2023/03/09 16:58:28;;;;;;;;;6.25;2.50;;;;;15.43;100.00;99277.06;4925767;28;50776;-77
2023/03/09 17:00:54;;;;;;;;;2.00;1.75;;;;;15.56;100.00;99306.78;4937603;28;49741;-78
2023/03/09 17:03:20;;;;;;;;;3.75;1.75;;;;;14.73;100.00;99167.63;4935147;28;50230;-80
2023/03/09 17:05:47;;;;;;;;;1.25;1.25;;;;;14.91;100.00;99211.28;4935457;28;49666;-78
2023/03/09 17:08:13;;;;;;;;;3.50;2.25;;;;;15.37;100.00;99295.72;4933578;28;51648;-75
2023/03/09 17:10:41;;;;;;;;;3.50;2.25;;;;;15.36;100.00;99291.34;4934838;28;49780;-78
2023/03/09 17:13:06;;;;;;;;;4.00;2.25;;;;;15.20;100.00;99260.84;4923621;28;49817;-77
2023/03/09 17:15:32;;;;;;;;;4.75;3.00;;;;;15.30;100.00;99288.81;4935498;28;49612;-74
2023/03/09 17:17:57;;;;;;;;;1.50;1.50;;;;;14.67;100.00;99188.00;4935081;28;49905;-75
2023/03/09 17:20:23;;;;;;;;;5.00;2.50;;;;;14.42;100.00;99151.53;4935039;28;49968;-81
2023/03/09 17:22:48;;;;;;;;;2.00;0.50;;;;;14.37;100.00;99160.41;4934675;28;49745;-71
2023/03/09 17:25:20;;;;;;;;;4.00;4.00;;;;;15.07;100.00;99299.03;4934434;28;50426;-76
2023/03/09 17:27:46;;;;;;;;;5.00;3.25;;;;;15.02;100.00;99292.97;4922106;28;50596;-70
2023/03/09 17:30:13;;;;;;;;;3.00;3.00;;;;;14.85;100.00;99266.88;4935215;28;49782;-79
2023/03/09 17:32:38;;;;;;;;;3.00;3.00;;;;;14.95;100.00;99286.06;4935280;28;49890;-74
2023/03/09 17:35:04;;;;;;;;;3.00;2.25;;;;;14.81;100.00;99254.63;4933551;28;50069;-75
2023/03/09 17:37:30;;;;;;;;;3.75;2.00;;;;;14.50;100.00;99217.41;4932697;28;51217;-75
2023/03/09 17:39:55;;;;;;;;;3.00;3.00;;;;;14.74;100.00;99268.88;4933080;28;49738;-75
2023/03/09 17:42:22;;;;;;;;;2.75;2.50;;;;;14.49;100.00;99229.75;4934468;28;49696;-74
2023/03/09 17:44:47;;;;;;;;;4.50;2.75;;;;;14.09;100.00;99176.81;4930585;28;49949;-75
2023/03/09 17:47:12;;;;;;;;;4.50;2.00;;;;;14.48;100.00;99242.97;4933731;28;65857;-74
2023/03/09 17:49:38;;;;;;;;;1.50;1.50;;;;;14.23;100.00;99222.28;4922423;28;50087;-74
2023/03/09 17:52:04;;;;;;;;;4.50;1.25;;;;;14.00;100.00;99182.25;4919006;28;49788;-75
2023/03/09 17:54:29;;;;;;;;;3.25;1.00;;;;;14.36;100.00;99256.34;4929852;28;49923;-76
2023/03/09 17:56:55;;;;;;;;;2.00;2.00;;;;;13.29;100.00;99063.97;4932472;28;49778;-75
2023/03/09 17:59:21;;;;;;;;;2.50;1.00;;;;;14.16;100.00;99219.78;4934030;28;50054;-76
2023/03/09 18:01:46;;;;;;;;;2.00;2.00;;;;;14.41;100.00;99273.00;4933621;28;49857;-73
2023/03/09 18:04:12;;;;;;;;;2.75;0.00;;;;;14.35;100.00;99287.16;4917267;28;50071;-75
2023/03/09 18:06:37;;;;;;;;;5.50;2.00;;;;;13.71;100.00;99190.69;4929182;28;50829;-77
2023/03/09 18:09:03;;;;;;;;;1.50;1.25;;;;;14.29;100.00;99258.25;4933204;28;50067;-74
2023/03/09 18:11:32;;;;;;;;;2.00;1.00;;;;;14.11;100.00;99226.91;4933910;28;50037;-73
2023/03/09 18:13:59;;;;;;;;;2.25;2.25;;;;;14.13;100.00;99238.31;4933009;28;49921;-78
2023/03/09 18:16:25;;;;;;;;;1.75;1.25;;;;;14.20;100.00;99253.16;4933806;28;51049;-78
2023/03/09 18:18:52;;;;;;;;;4.75;2.25;;;;;14.08;100.00;99248.94;4921721;28;49770;-77
2023/03/09 18:21:19;;;;;;;;;1.25;1.25;;;;;13.92;100.00;99218.47;4948701;28;49679;-83
2023/03/09 18:23:48;;;;;;;;;1.75;0.25;;;;;13.92;100.00;99232.50;4934785;28;49858;-78
2023/03/09 18:26:19;;;;;;;;;0.00;0.00;;;;;14.15;100.00;99257.63;4934697;28;49807;-76
2023/03/09 18:28:45;;;;;;;;;1.00;0.00;;;;;13.72;100.00;99219.66;4910644;28;49720;-77
2023/03/09 18:31:11;;;;;;;;;1.50;1.50;;;;;14.11;100.00;99263.88;4934295;28;49805;-76
2023/03/09 18:33:36;;;;;;;;;1.50;1.00;;;;;13.92;100.00;99247.47;4935643;28;49904;-85
2023/03/09 18:36:04;;;;;;;;;0.25;0.25;;;;;14.01;100.00;99244.69;4933100;28;51668;-84
2023/03/09 18:38:29;;;;;;;;;1.50;1.50;;;;;13.80;100.00;99231.81;4933707;28;49829;-70
2023/03/09 18:40:55;;;;;;;;;0.00;0.00;;;;;13.89;100.00;99253.66;4933599;28;49778;-69
2023/03/09 18:43:20;;;;;;;;;1.75;1.50;;;;;13.92;100.00;99268.56;4930078;28;49696;-75
2023/03/09 18:45:45;;;;;;;;;0.75;0.25;;;;;13.77;100.00;99239.81;4929676;28;63889;-73
2023/03/09 18:48:15;;;;;;;;;2.50;0.75;;;;;13.68;100.00;99214.44;4916881;28;49707;-77
2023/03/09 18:50:42;;;;;;;;;1.00;1.00;;;;;13.80;100.00;99242.38;4901990;28;50134;-71
2023/03/09 18:53:09;;;;;;;;;3.00;2.00;;;;;13.76;100.00;99238.94;4931414;28;50146;-69
2023/03/09 18:55:38;;;;;;;;;2.00;1.25;;;;;13.87;100.00;99262.50;4927721;28;50543;-72
2023/03/09 18:58:04;;;;;;;;;1.00;1.00;;;;;13.65;100.00;99203.97;4919370;28;49894;-69
2023/03/09 19:00:29;;;;;;;;;1.50;0.75;;;;;13.87;100.00;99244.91;4918942;28;49893;-71